createdAt,value
2023-03-23T15:57:51.988Z,48.80
2023-03-23T16:00:20.013Z,49.03
2023-03-23T16:02:47.824Z,48.64
2023-03-23T16:05:15.064Z,48.60
2023-03-23T16:07:41.791Z,49.34
2023-03-23T16:10:14.436Z,49.38
2023-03-23T16:12:41.157Z,50.83
2023-03-23T16:15:09.283Z,50.61
2023-03-23T16:17:35.928Z,51.20
2023-03-23T16:20:04.253Z,51.66
2023-03-23T16:22:30.984Z,52.02
2023-03-23T16:24:57.667Z,52.24
2023-03-23T16:27:24.272Z,52.01
2023-03-23T16:30:02.920Z,52.52
2023-03-23T16:32:31.225Z,52.50
2023-03-23T16:34:57.990Z,52.98
2023-03-23T16:37:24.686Z,53.63
2023-03-23T16:39:51.363Z,54.14
2023-03-23T16:42:18.075Z,54.55
2023-03-23T16:44:45.052Z,54.59
2023-03-23T16:47:11.793Z,54.69
2023-03-23T16:49:38.417Z,56.06
2023-03-23T16:52:05.251Z,57.63
2023-03-23T16:54:31.861Z,58.88
2023-03-23T16:56:58.588Z,59.62
2023-03-23T16:59:28.113Z,59.60
2023-03-23T17:01:54.879Z,60.85
2023-03-23T17:04:21.586Z,61.47
2023-03-23T17:06:49.086Z,61.20
2023-03-23T17:09:16.028Z,61.34
2023-03-23T17:11:42.633Z,61.88
2023-03-23T17:14:09.347Z,60.66
2023-03-23T17:16:35.999Z,61.50
2023-03-23T17:19:02.629Z,62.72
2023-03-23T17:21:29.246Z,62.24
2023-03-23T17:23:56.056Z,62.11
2023-03-23T17:26:22.847Z,63.28
2023-03-23T17:28:49.539Z,63.58
2023-03-23T17:31:16.334Z,62.89
2023-03-23T17:33:42.971Z,62.93
2023-03-23T17:36:09.729Z,64.09
2023-03-23T17:38:36.376Z,67.89
2023-03-23T17:41:05.586Z,68.15
2023-03-23T17:43:33.679Z,66.60
2023-03-23T17:46:00.458Z,67.45
2023-03-23T17:48:27.240Z,67.66
2023-03-23T17:50:55.428Z,67.18
2023-03-23T17:53:22.092Z,69.57
2023-03-23T17:55:48.720Z,69.27
2023-03-23T17:58:15.812Z,68.87
2023-03-23T18:00:42.506Z,69.75
2023-03-23T18:03:09.334Z,71.56
2023-03-23T18:05:38.366Z,71.68
2023-03-23T18:08:08.195Z,71.14
2023-03-23T18:10:36.619Z,71.52
2023-03-23T18:13:04.044Z,70.16
2023-03-23T18:15:30.994Z,69.52
2023-03-23T18:17:57.787Z,70.34
2023-03-23T18:20:24.468Z,69.70
2023-03-23T18:22:51.226Z,70.26
2023-03-23T18:25:17.965Z,70.59
2023-03-23T18:27:44.817Z,71.28
2023-03-23T18:30:11.807Z,70.87
2023-03-23T18:32:39.219Z,69.92
2023-03-23T18:35:06.934Z,73.13
2023-03-23T18:37:34.469Z,76.29
2023-03-23T18:40:01.550Z,74.29
2023-03-23T18:42:28.336Z,75.12
2023-03-23T18:44:55.161Z,76.62
2023-03-23T18:47:22.159Z,77.88
2023-03-23T18:49:53.839Z,78.82
2023-03-23T18:52:26.137Z,78.48
2023-03-23T18:54:53.666Z,76.81
2023-03-23T18:57:22.640Z,79.37
2023-03-23T18:59:49.575Z,79.77
2023-03-23T19:02:18.426Z,80.41
2023-03-23T19:04:46.045Z,82.08
2023-03-23T19:07:13.530Z,83.02
2023-03-23T19:09:43.680Z,85.26
2023-03-23T19:12:11.819Z,83.77
2023-03-23T19:14:42.064Z,83.19
2023-03-23T19:17:08.984Z,82.33
2023-03-23T19:19:35.862Z,82.82
2023-03-23T19:22:03.440Z,84.10
2023-03-23T19:24:30.456Z,83.91
2023-03-23T19:26:57.420Z,83.02
2023-03-23T19:29:27.083Z,83.73
2023-03-23T19:31:57.696Z,83.88
2023-03-23T19:34:25.237Z,84.89
2023-03-23T19:36:56.223Z,84.08
2023-03-23T19:39:29.838Z,84.04
2023-03-23T19:41:56.448Z,83.75
2023-03-23T19:44:23.515Z,82.73
2023-03-23T19:46:50.645Z,85.34
2023-03-23T19:49:17.818Z,85.77
2023-03-23T19:51:44.656Z,84.04
2023-03-23T19:54:13.230Z,84.24
2023-03-23T19:56:40.204Z,83.78
2023-03-23T19:59:10.581Z,83.67
2023-03-23T20:01:37.709Z,83.35
2023-03-23T20:04:05.463Z,84.71
2023-03-23T20:06:32.384Z,85.42
2023-03-23T20:09:00.163Z,84.26
2023-03-23T20:11:27.211Z,82.22
2023-03-23T20:13:54.081Z,82.38
2023-03-23T20:16:20.867Z,82.29
2023-03-23T20:18:47.710Z,83.58
2023-03-23T20:21:18.944Z,83.55
2023-03-23T20:23:46.874Z,85.10
2023-03-23T20:26:15.619Z,85.73
2023-03-23T20:28:42.795Z,84.51
2023-03-23T20:31:21.117Z,85.06
2023-03-23T20:34:01.109Z,85.77
2023-03-23T20:36:37.014Z,86.88
2023-03-23T20:39:05.527Z,87.64
2023-03-23T20:41:33.048Z,85.34
2023-03-23T20:43:59.848Z,83.53
2023-03-23T20:46:26.649Z,85.19
2023-03-23T20:48:53.360Z,84.28
2023-03-23T20:51:21.025Z,84.30
2023-03-23T20:53:48.704Z,83.08
2023-03-23T20:56:15.401Z,81.99
2023-03-23T20:58:42.642Z,80.96
2023-03-23T21:01:10.865Z,82.08
2023-03-23T21:03:40.373Z,82.99
2023-03-23T21:06:07.508Z,81.87
2023-03-23T21:08:36.240Z,81.22
2023-03-23T21:11:03.986Z,80.41
2023-03-23T21:13:30.875Z,79.60
2023-03-23T21:15:57.646Z,78.26
2023-03-23T21:18:24.285Z,80.38
2023-03-23T21:20:51.056Z,82.89
2023-03-23T21:23:19.509Z,85.47
2023-03-23T21:25:46.533Z,85.45
2023-03-23T21:28:13.603Z,86.28
2023-03-23T21:30:45.309Z,85.15
2023-03-23T21:33:13.217Z,83.15
2023-03-23T21:35:41.777Z,82.15
2023-03-23T21:38:14.425Z,82.13
2023-03-23T21:40:42.122Z,79.94
2023-03-23T21:43:14.797Z,79.71
2023-03-23T21:45:42.426Z,79.44
2023-03-23T21:48:11.398Z,79.04
2023-03-23T21:50:42.101Z,78.91
2023-03-23T21:53:12.865Z,78.70
2023-03-23T21:55:41.018Z,78.92
2023-03-23T21:58:09.665Z,79.16
2023-03-23T22:00:36.791Z,78.97
2023-03-23T22:03:04.821Z,79.79
2023-03-23T22:05:32.166Z,79.65
2023-03-23T22:07:58.985Z,79.41
2023-03-23T22:10:25.734Z,80.33
2023-03-23T22:12:54.396Z,79.72
2023-03-23T22:15:27.852Z,80.38
2023-03-23T22:17:55.299Z,79.82
2023-03-23T22:20:22.007Z,79.77
2023-03-23T22:22:48.797Z,80.39
2023-03-23T22:25:15.580Z,80.05
2023-03-23T22:27:42.846Z,82.40
2023-03-23T22:30:10.064Z,82.51
2023-03-23T22:32:36.923Z,82.85
2023-03-23T22:35:04.010Z,84.46
2023-03-23T22:37:30.935Z,83.43
2023-03-23T22:39:57.696Z,83.37
2023-03-23T22:42:24.536Z,84.54
2023-03-23T22:44:51.282Z,83.57
2023-03-23T22:47:17.975Z,83.16
2023-03-23T22:49:44.698Z,84.09
2023-03-23T22:52:11.460Z,83.62
2023-03-23T22:54:38.253Z,83.07
2023-03-23T22:57:04.971Z,82.24
2023-03-23T22:59:31.649Z,81.63
2023-03-23T23:01:58.416Z,81.37
2023-03-23T23:04:25.304Z,81.57
2023-03-23T23:07:00.379Z,84.69
2023-03-23T23:09:33.493Z,85.37
2023-03-23T23:12:00.273Z,84.36
2023-03-23T23:14:27.298Z,84.03
2023-03-23T23:16:54.088Z,83.72
2023-03-23T23:19:20.928Z,83.04
2023-03-23T23:21:47.617Z,83.51
2023-03-23T23:24:14.716Z,83.00
2023-03-23T23:26:42.045Z,83.12
2023-03-23T23:29:09.350Z,83.59
2023-03-23T23:31:35.982Z,84.19
2023-03-23T23:34:03.227Z,85.10
2023-03-23T23:36:30.552Z,85.10
2023-03-23T23:39:00.606Z,84.71
2023-03-23T23:41:27.861Z,84.06
2023-03-23T23:43:54.532Z,84.01
2023-03-23T23:46:21.590Z,85.30
2023-03-23T23:48:48.498Z,84.57
2023-03-23T23:51:16.603Z,85.19
2023-03-23T23:53:44.309Z,85.73
2023-03-23T23:56:11.655Z,85.22
2023-03-23T23:58:38.328Z,85.48
